Terminal Aerodrome Forecast
Issued by NWS Northern Indiana

Home | Current Version | Previous Version | Text Only | Print | Product List | Glossary On
Versions: 1 2 3 4 5 6 7 8 9 10 11 12 13 14 15 16
367
FTUS43 KIWX 051720
TAFFWA
TAF
KFWA 051720Z 0518/0618 22008KT P6SM SCT050
     FM052000 25007KT P6SM SCT020 BKN035
     FM060300 25005KT P6SM BKN050=

USA.gov is the U.S. government's official web portal to all federal, state and local government web resources and services.